Time;durP1;ratioP1;P1;durP2;ratioP2;P2;SDS_P1;SDS_P2;PMS_P1;PMS_P2;Temp;Humidity;BMP_temperature;BMP_pressure;BME280_temperature;BME280_humidity;BME280_pressure;Samples;Min_cycle;Max_cycle;Signal;HPM_P1;HPM_P2
2021/12/11 00:01:18;;;;;;;41.08;19.92;;;-0.40;99.90;;;;;;5016227;28;20037;-66
2021/12/11 00:03:51;;;;;;;40.90;21.13;;;-0.40;99.90;;;;;;5007596;28;20437;-66
2021/12/11 00:06:23;;;;;;;41.90;20.95;;;-0.40;99.90;;;;;;5015958;28;20120;-66
2021/12/11 00:08:56;;;;;;;44.35;20.90;;;-0.40;99.90;;;;;;4996351;28;20045;-66
2021/12/11 00:11:37;;;;;;;40.58;20.98;;;-0.30;99.90;;;;;;5020748;28;20576;-66
2021/12/11 00:14:07;;;;;;;38.58;20.55;;;-0.30;99.90;;;;;;4998119;28;20029;-66
2021/12/11 00:16:36;;;;;;;40.88;22.00;;;-0.40;99.90;;;;;;5026797;28;20083;-66
2021/12/11 00:19:22;;;;;;;43.67;22.90;;;-0.30;99.90;;;;;;5004195;28;20033;-66
2021/12/11 00:21:50;;;;;;;42.75;22.25;;;-0.20;99.90;;;;;;5014782;28;20072;-65
2021/12/11 00:24:25;;;;;;;46.13;22.50;;;-0.20;99.90;;;;;;5001264;28;20064;-66
2021/12/11 00:27:04;;;;;;;46.60;22.02;;;-0.10;99.90;;;;;;5021065;28;20102;-66
2021/12/11 00:29:32;;;;;;;46.95;22.30;;;0.00;99.90;;;;;;5006889;28;20585;-65
2021/12/11 00:32:10;;;;;;;43.50;22.02;;;0.00;99.90;;;;;;5007962;28;20162;-66
2021/12/11 00:34:40;;;;;;;44.42;21.08;;;0.10;99.90;;;;;;5016024;28;20037;-66
2021/12/11 00:37:09;;;;;;;42.75;21.20;;;0.10;99.90;;;;;;5018887;28;20112;-66
2021/12/11 00:39:49;;;;;;;41.78;21.92;;;0.10;99.90;;;;;;5008037;28;20056;-66
2021/12/11 00:42:17;;;;;;;47.40;21.60;;;0.10;99.90;;;;;;5020254;28;20120;-66
2021/12/11 00:44:51;;;;;;;40.55;21.65;;;0.10;99.90;;;;;;5026028;28;20621;-66
2021/12/11 00:47:27;;;;;;;43.20;22.38;;;0.00;99.90;;;;;;5027879;28;20035;-66
2021/12/11 00:49:59;;;;;;;44.38;23.27;;;0.00;99.90;;;;;;5019376;28;20100;-66
2021/12/11 00:53:01;;;;;;;45.17;24.08;;;0.00;99.90;;;;;;5028834;28;20470;-66
2021/12/11 00:55:30;;;;;;;48.20;24.95;;;0.00;99.90;;;;;;4985459;28;20045;-66
2021/12/11 00:58:10;;;;;;;61.97;29.83;;;0.00;99.90;;;;;;5002810;28;20102;-66
2021/12/11 01:00:49;;;;;;;59.83;28.02;;;0.00;99.90;;;;;;5018189;28;20099;-66
2021/12/11 01:03:20;;;;;;;57.78;28.10;;;0.00;99.90;;;;;;5018224;28;20065;-66
2021/12/11 01:05:51;;;;;;;49.03;24.67;;;-0.10;99.90;;;;;;5024393;28;20037;-66
2021/12/11 01:08:32;;;;;;;47.28;23.88;;;-0.10;99.90;;;;;;5018358;28;20280;-66
2021/12/11 01:11:07;;;;;;;56.47;26.20;;;-0.10;99.90;;;;;;5003426;28;20095;-66
2021/12/11 01:13:40;;;;;;;50.40;24.33;;;-0.10;99.90;;;;;;5004407;28;20045;-66
2021/12/11 01:16:12;;;;;;;48.97;23.70;;;-0.20;99.90;;;;;;5000691;28;20061;-66
2021/12/11 01:18:43;;;;;;;46.55;22.42;;;-0.20;99.90;;;;;;5010174;28;20072;-66
2021/12/11 01:24:14;;;;;;;93.93;44.92;;;-0.30;99.90;;;;;;5029552;28;20071;-66
2021/12/11 01:26:47;;;;;;;61.50;31.52;;;-0.30;99.90;;;;;;5027391;28;20429;-66
2021/12/11 01:29:15;;;;;;;60.38;31.52;;;-0.30;99.90;;;;;;5025601;28;20037;-66
2021/12/11 01:31:42;;;;;;;55.97;28.90;;;-0.30;99.90;;;;;;5004921;28;20045;-66
2021/12/11 01:34:10;;;;;;;50.67;25.17;;;-0.40;99.90;;;;;;5019205;28;20037;-66
2021/12/11 01:36:38;;;;;;;46.15;24.38;;;-0.40;99.90;;;;;;4998691;28;20056;-66
2021/12/11 01:39:16;;;;;;;42.78;22.83;;;-0.40;99.90;;;;;;5020155;28;20039;-66
2021/12/11 01:41:44;;;;;;;44.85;20.73;;;-0.40;99.90;;;;;;4981834;28;20045;-66
2021/12/11 01:44:17;;;;;;;41.60;22.70;;;-0.50;99.90;;;;;;5019599;28;20059;-66
2021/12/11 01:46:44;;;;;;;38.53;20.27;;;-0.50;99.90;;;;;;5001236;28;20048;-66
2021/12/11 01:49:14;;;;;;;;;;;-0.50;99.90;;;;;;5023724;28;20473;-66
2021/12/11 01:51:53;;;;;;;42.55;18.80;;;-0.50;99.90;;;;;;5017679;28;19922;-66
2021/12/11 01:54:33;;;;;;;38.95;19.73;;;-0.50;99.90;;;;;;5019824;28;20099;-66
2021/12/11 01:57:08;;;;;;;38.20;18.50;;;-0.50;99.90;;;;;;5024668;28;20529;-66
2021/12/11 01:59:39;;;;;;;38.63;18.98;;;-0.50;99.90;;;;;;5013903;28;20045;-66
2021/12/11 02:02:21;;;;;;;29.13;16.50;;;-0.40;99.90;;;;;;5010283;28;20385;-66
2021/12/11 02:04:53;;;;;;;35.67;18.02;;;-0.40;99.90;;;;;;5014941;28;20065;-70
2021/12/11 02:07:41;;;;;;;36.38;17.33;;;-0.40;99.90;;;;;;4994665;28;20774;-66
2021/12/11 02:10:17;;;;;;;31.95;17.15;;;-0.40;99.90;;;;;;5018064;28;21238;-65
2021/12/11 02:12:44;;;;;;;33.72;17.63;;;-0.30;99.90;;;;;;5026785;28;20117;-66
2021/12/11 02:15:16;;;;;;;34.90;17.13;;;-0.30;99.90;;;;;;5019909;28;20084;-66
2021/12/11 02:17:55;;;;;;;32.78;18.00;;;-0.30;99.90;;;;;;5022099;28;20033;-67
2021/12/11 02:20:37;;;;;;;32.45;17.60;;;-0.30;99.90;;;;;;5006303;28;20108;-65
2021/12/11 02:23:05;;;;;;;31.83;17.70;;;-0.40;99.90;;;;;;5026345;28;20041;-66
2021/12/11 02:25:39;;;;;;;30.35;15.23;;;-0.40;99.90;;;;;;5005610;28;20204;-65
2021/12/11 02:28:19;;;;;;;27.88;14.05;;;-0.40;99.90;;;;;;5020057;28;20119;-65
2021/12/11 02:30:53;;;;;;;30.63;13.65;;;-0.40;99.90;;;;;;5027392;28;20033;-66
2021/12/11 02:33:32;;;;;;;29.17;13.48;;;-0.40;99.90;;;;;;5023882;28;20127;-66
2021/12/11 02:36:14;;;;;;;31.75;13.75;;;-0.30;99.90;;;;;;5025929;28;20296;-65
2021/12/11 02:39:05;;;;;;;29.15;15.10;;;-0.20;99.90;;;;;;5024771;28;20104;-66
2021/12/11 02:41:42;;;;;;;29.50;13.05;;;-0.20;99.90;;;;;;5020428;28;20188;-66
2021/12/11 02:44:53;;;;;;;25.02;13.45;;;-0.20;99.90;;;;;;5029839;28;20087;-65
2021/12/11 02:47:23;;;;;;;24.60;11.88;;;-0.10;99.90;;;;;;4980654;28;20065;-65
2021/12/11 02:50:05;;;;;;;28.33;12.95;;;-0.20;99.90;;;;;;5027700;28;20049;-65
2021/12/11 02:52:45;;;;;;;30.40;13.40;;;-0.10;99.90;;;;;;5026770;28;20048;-65
2021/12/11 02:55:27;;;;;;;36.97;14.73;;;-0.20;99.90;;;;;;5022698;28;20041;-66
2021/12/11 02:58:05;;;;;;;27.85;12.98;;;-0.20;99.90;;;;;;5010785;28;20510;-66
2021/12/11 03:00:42;;;;;;;26.17;13.48;;;-0.30;99.90;;;;;;5028729;28;20545;-65
2021/12/11 03:03:12;;;;;;;26.97;14.00;;;-0.40;99.90;;;;;;5010767;28;20120;-66
2021/12/11 03:05:50;;;;;;;24.77;12.25;;;-0.40;99.90;;;;;;5029076;28;20068;-66
2021/12/11 03:08:21;;;;;;;30.50;14.02;;;-0.40;99.90;;;;;;5023513;28;20121;-66
2021/12/11 03:10:53;;;;;;;24.27;13.43;;;-0.40;99.90;;;;;;5032061;28;20553;-66
2021/12/11 03:13:20;;;;;;;26.67;13.35;;;-0.40;99.90;;;;;;5025305;28;20045;-69
2021/12/11 03:15:47;;;;;;;28.35;12.85;;;-0.40;99.90;;;;;;5007622;28;20042;-66
2021/12/11 03:18:14;;;;;;;27.23;13.38;;;-0.30;99.90;;;;;;5026839;28;20110;-66
2021/12/11 03:20:44;;;;;;;28.63;13.05;;;-0.40;99.90;;;;;;5010300;28;20088;-75
2021/12/11 03:23:11;;;;;;;27.70;13.18;;;-0.30;99.90;;;;;;4987018;28;20490;-66
2021/12/11 03:25:39;;;;;;;32.42;13.68;;;-0.30;99.90;;;;;;5005929;28;20061;-66
2021/12/11 03:28:08;;;;;;;23.73;13.07;;;-0.30;99.90;;;;;;5025841;28;20128;-66
2021/12/11 03:30:43;;;;;;;30.10;12.55;;;-0.30;99.90;;;;;;5015702;28;20033;-66
2021/12/11 03:33:14;;;;;;;29.77;13.52;;;-0.30;99.90;;;;;;4999704;28;20065;-66
2021/12/11 03:35:45;;;;;;;21.00;11.13;;;-0.30;99.90;;;;;;5019827;28;20041;-65
2021/12/11 03:38:13;;;;;;;25.85;12.75;;;-0.30;99.90;;;;;;4996559;28;20482;-66
2021/12/11 03:40:41;;;;;;;26.67;12.60;;;-0.30;99.90;;;;;;5033008;28;20033;-66
2021/12/11 03:43:12;;;;;;;27.42;12.68;;;-0.30;99.90;;;;;;5028751;28;20398;-66
2021/12/11 03:45:42;;;;;;;27.08;12.50;;;-0.40;99.90;;;;;;5025262;28;20140;-66
2021/12/11 03:48:31;;;;;;;25.88;13.02;;;-0.40;99.90;;;;;;5024635;28;20033;-66
2021/12/11 03:50:58;;;;;;;27.02;12.95;;;-0.40;99.90;;;;;;5022531;28;20060;-65
2021/12/11 03:53:25;;;;;;;28.30;12.07;;;-0.30;99.90;;;;;;5024226;28;20101;-65
2021/12/11 03:55:59;;;;;;;25.10;12.45;;;-0.30;99.90;;;;;;5022962;28;20095;-65
2021/12/11 03:58:26;;;;;;;28.83;12.38;;;-0.30;99.90;;;;;;5008446;28;20037;-65
2021/12/11 04:00:57;;;;;;;24.42;12.15;;;-0.30;99.90;;;;;;5027576;28;20151;-65
2021/12/11 04:03:27;;;;;;;25.35;11.35;;;-0.30;99.90;;;;;;5023348;28;20132;-65
2021/12/11 04:05:55;;;;;;;25.50;12.00;;;-0.40;99.90;;;;;;5033124;28;20564;-65
2021/12/11 04:08:25;;;;;;;24.90;12.07;;;-0.40;99.90;;;;;;5001917;28;20068;-66
2021/12/11 04:10:51;;;;;;;25.27;10.82;;;-0.40;99.90;;;;;;5028652;28;20042;-66
2021/12/11 04:13:18;;;;;;;29.45;13.20;;;-0.40;99.90;;;;;;5032268;28;20176;-66
2021/12/11 04:15:46;;;;;;;;;;;-0.50;99.90;;;;;;5029318;28;20414;-66
2021/12/11 04:18:12;;;;;;;28.25;13.10;;;-0.50;99.90;;;;;;5010292;28;19971;-66
2021/12/11 04:20:41;;;;;;;28.20;12.83;;;-0.50;99.90;;;;;;5020538;28;20034;-66
2021/12/11 04:23:11;;;;;;;26.77;12.80;;;-0.50;99.90;;;;;;5027532;28;20124;-66
2021/12/11 04:25:38;;;;;;;27.38;13.18;;;-0.50;99.90;;;;;;5030294;28;20088;-67
2021/12/11 04:28:04;;;;;;;26.50;13.23;;;-0.60;99.90;;;;;;5032519;28;20045;-66
2021/12/11 04:30:30;;;;;;;26.20;13.00;;;-0.60;99.90;;;;;;5030798;28;20048;-66
2021/12/11 04:32:58;;;;;;;30.93;13.77;;;-0.60;99.90;;;;;;5025378;28;20045;-66
2021/12/11 04:35:28;;;;;;;26.35;13.10;;;-0.70;99.90;;;;;;5031962;28;20064;-67
2021/12/11 04:37:54;;;;;;;29.65;14.10;;;-0.60;99.90;;;;;;5000500;28;20144;-66
2021/12/11 04:40:27;;;;;;;27.45;12.90;;;-0.60;99.90;;;;;;5024984;28;20040;-66
2021/12/11 04:43:06;;;;;;;29.67;13.27;;;-0.60;99.90;;;;;;5021059;28;20045;-66
2021/12/11 04:46:13;;;;;;;23.67;11.90;;;-0.60;99.90;;;;;;5010848;28;20044;-66
2021/12/11 04:48:58;;;;;;;23.73;10.75;;;-0.60;99.90;;;;;;4976662;28;20050;-66
2021/12/11 04:51:44;;;;;;;24.15;11.32;;;-0.60;99.90;;;;;;5013090;28;20098;-66
2021/12/11 04:57:06;;;;;;;25.60;13.13;;;-0.60;99.90;;;;;;5032670;28;20434;-66
2021/12/11 04:59:51;;;;;;;26.42;12.25;;;-0.70;99.90;;;;;;5027154;28;20045;-66
2021/12/11 05:07:39;;;;;;;23.27;10.88;;;-0.80;99.90;;;;;;5019082;28;20158;-66
2021/12/11 05:10:17;;;;;;;26.42;11.40;;;-0.90;99.90;;;;;;5022355;28;20036;-66
2021/12/11 05:12:47;;;;;;;25.95;13.65;;;-0.90;99.90;;;;;;5026316;28;20179;-66
2021/12/11 05:15:17;;;;;;;30.48;12.60;;;-0.90;99.90;;;;;;5020821;28;20080;-66
2021/12/11 05:17:43;;;;;;;29.75;13.70;;;-1.00;99.90;;;;;;5031406;28;20067;-66
2021/12/11 05:20:12;;;;;;;24.50;12.05;;;-0.90;99.90;;;;;;5023466;28;20034;-66
2021/12/11 05:22:40;;;;;;;36.33;13.82;;;-1.00;99.90;;;;;;5010239;28;20049;-66
2021/12/11 05:25:10;;;;;;;23.35;12.30;;;-1.00;99.90;;;;;;5021352;28;20276;-66
2021/12/11 05:27:36;;;;;;;27.52;12.18;;;-1.00;99.90;;;;;;5026959;28;20478;-66
2021/12/11 05:30:07;;;;;;;31.45;13.55;;;-1.00;99.90;;;;;;5023064;28;20095;-66
2021/12/11 05:32:33;;;;;;;27.67;12.02;;;-1.00;99.90;;;;;;5021442;28;20046;-67
2021/12/11 05:34:58;;;;;;;26.37;11.57;;;-1.00;99.90;;;;;;5011358;28;20612;-66
2021/12/11 05:37:24;;;;;;;27.13;12.50;;;-1.10;99.90;;;;;;5025878;28;20149;-65
2021/12/11 05:39:50;;;;;;;30.75;13.40;;;-1.10;99.90;;;;;;5025655;28;20029;-66
2021/12/11 05:42:16;;;;;;;26.17;13.02;;;-1.10;99.90;;;;;;5022035;28;20073;-66
2021/12/11 05:44:43;;;;;;;24.37;12.20;;;-1.20;99.90;;;;;;5024741;28;20517;-66
2021/12/11 05:47:10;;;;;;;27.73;12.63;;;-1.10;99.90;;;;;;5033054;28;20068;-66
2021/12/11 05:49:35;;;;;;;;;;;-1.10;99.90;;;;;;5023320;28;20053;-66
2021/12/11 05:52:07;;;;;;;25.70;11.95;;;-1.10;99.90;;;;;;5021513;28;19921;-65
2021/12/11 05:54:34;;;;;;;26.13;12.35;;;-1.20;99.90;;;;;;5000662;28;20045;-66
2021/12/11 05:57:02;;;;;;;;;;;-1.20;99.90;;;;;;5016748;28;20056;-66
2021/12/11 05:59:30;;;;;;;29.70;12.68;;;-1.30;99.90;;;;;;5023286;28;19921;-66
2021/12/11 06:02:08;;;;;;;27.35;11.98;;;-1.30;99.90;;;;;;5022030;28;20116;-66
2021/12/11 06:04:36;;;;;;;26.60;11.85;;;-1.30;99.90;;;;;;5005215;28;20049;-66
2021/12/11 06:07:06;;;;;;;24.98;11.60;;;-1.30;99.90;;;;;;5021027;28;20079;-65
2021/12/11 06:09:31;;;;;;;24.27;12.15;;;-1.30;99.90;;;;;;5004922;28;20046;-66
2021/12/11 06:12:03;;;;;;;25.83;12.60;;;-1.30;99.90;;;;;;5021804;28;20406;-66
2021/12/11 06:14:29;;;;;;;23.80;10.75;;;-1.30;99.90;;;;;;5022877;28;20041;-66
2021/12/11 06:16:56;;;;;;;25.00;11.82;;;-1.30;99.90;;;;;;5004477;28;20390;-66
2021/12/11 06:19:24;;;;;;;27.30;12.48;;;-1.30;99.90;;;;;;5020201;28;20044;-66
2021/12/11 06:21:51;;;;;;;23.60;12.00;;;-1.30;99.90;;;;;;5018515;28;20460;-66
2021/12/11 06:24:22;;;;;;;29.15;12.50;;;-1.40;99.90;;;;;;4993620;28;20040;-66
2021/12/11 06:26:48;;;;;;;27.35;12.68;;;-1.40;99.90;;;;;;5016685;28;20113;-66
2021/12/11 06:29:14;;;;;;;23.77;12.83;;;-1.40;99.90;;;;;;4999002;28;20152;-65
2021/12/11 06:31:43;;;;;;;31.52;12.45;;;-1.40;99.90;;;;;;5026101;28;20096;-66
2021/12/11 06:34:08;;;;;;;24.35;12.68;;;-1.40;99.90;;;;;;5001073;28;20030;-66
2021/12/11 06:36:40;;;;;;;22.43;11.47;;;-1.50;99.90;;;;;;5002236;28;20088;-66
2021/12/11 06:39:11;;;;;;;26.75;12.35;;;-1.50;99.90;;;;;;5001325;28;20034;-65
2021/12/11 06:41:39;;;;;;;24.95;12.63;;;-1.50;99.90;;;;;;5007690;28;20033;-66
2021/12/11 06:44:08;;;;;;;24.08;11.98;;;-1.50;99.90;;;;;;5020960;28;20410;-66
2021/12/11 06:46:34;;;;;;;24.45;11.20;;;-1.50;99.90;;;;;;5021098;28;20041;-66
2021/12/11 06:49:00;;;;;;;23.90;12.18;;;-1.50;99.90;;;;;;4998313;28;20088;-66
2021/12/11 06:51:27;;;;;;;27.47;12.37;;;-1.50;99.90;;;;;;4987572;28;20506;-66
2021/12/11 06:53:58;;;;;;;27.67;12.85;;;-1.50;99.90;;;;;;5020302;28;20045;-66
2021/12/11 06:56:24;;;;;;;26.10;11.88;;;-1.50;99.90;;;;;;5020870;28;20061;-65
2021/12/11 06:58:51;;;;;;;25.57;11.73;;;-1.50;99.90;;;;;;5004142;28;20061;-66
2021/12/11 07:01:18;;;;;;;23.20;11.48;;;-1.50;99.90;;;;;;5012676;28;20937;-67
2021/12/11 07:03:44;;;;;;;23.13;11.45;;;-1.60;99.90;;;;;;5019066;28;20457;-66
2021/12/11 07:06:11;;;;;;;29.20;11.73;;;-1.60;99.90;;;;;;5002745;28;20072;-66
2021/12/11 07:08:39;;;;;;;25.90;12.00;;;-1.60;99.90;;;;;;5016801;28;20136;-66
2021/12/11 07:11:08;;;;;;;24.67;11.52;;;-1.60;99.90;;;;;;5021169;28;20037;-66
2021/12/11 07:13:35;;;;;;;22.95;11.35;;;-1.60;99.90;;;;;;5003829;28;20060;-66
2021/12/11 07:16:01;;;;;;;24.77;11.60;;;-1.60;99.90;;;;;;5023753;28;20041;-66
2021/12/11 07:18:31;;;;;;;27.67;12.00;;;-1.60;99.90;;;;;;5025303;28;20033;-66
2021/12/11 07:20:57;;;;;;;24.15;12.23;;;-1.60;99.90;;;;;;5023351;28;20034;-66
2021/12/11 07:23:24;;;;;;;18.63;11.18;;;-1.60;99.90;;;;;;5020935;28;20041;-66
2021/12/11 07:26:12;;;;;;;20.05;10.18;;;-1.60;99.90;;;;;;5015311;28;20079;-66
2021/12/11 07:28:40;;;;;;;26.10;12.20;;;-1.70;99.90;;;;;;5001388;28;20046;-65
2021/12/11 07:31:05;;;;;;;21.08;10.40;;;-1.70;99.90;;;;;;5010398;28;20043;-66
2021/12/11 07:33:31;;;;;;;24.10;11.00;;;-1.70;99.90;;;;;;5033162;28;20384;-66
2021/12/11 07:35:56;;;;;;;22.77;11.43;;;-1.70;99.90;;;;;;5028913;28;20045;-66
2021/12/11 07:38:22;;;;;;;27.83;11.90;;;-1.70;99.90;;;;;;5008290;28;20075;-66
2021/12/11 07:40:58;;;;;;;17.93;9.67;;;-1.70;99.90;;;;;;5004116;28;20268;-66
2021/12/11 07:43:25;;;;;;;24.33;11.35;;;-1.70;99.90;;;;;;5003759;28;20281;-66
2021/12/11 07:45:52;;;;;;;21.60;11.43;;;-1.60;99.90;;;;;;5029076;28;20486;-66
2021/12/11 07:48:20;;;;;;;20.95;10.30;;;-1.60;99.90;;;;;;5003586;28;20091;-66
2021/12/11 07:50:46;;;;;;;29.50;11.63;;;-1.60;99.90;;;;;;5021829;28;20502;-66
2021/12/11 07:53:16;;;;;;;22.27;10.27;;;-1.60;99.90;;;;;;5023950;28;20037;-66
2021/12/11 07:55:42;;;;;;;20.35;10.35;;;-1.60;99.90;;;;;;5047223;22;20032;-71
2021/12/11 07:58:09;;;;;;;28.02;13.20;;;-1.60;99.90;;;;;;5051131;28;20120;-67
2021/12/11 08:00:39;;;;;;;21.65;11.23;;;-1.60;99.90;;;;;;5062672;28;20055;-68
2021/12/11 08:03:08;;;;;;;23.58;11.27;;;-1.60;99.90;;;;;;5064670;28;20031;-68
2021/12/11 08:05:35;;;;;;;24.98;12.48;;;-1.60;99.90;;;;;;5056910;28;20119;-67
2021/12/11 08:08:03;;;;;;;19.77;10.35;;;-1.60;99.90;;;;;;5079621;28;20460;-71
2021/12/11 08:10:30;;;;;;;23.90;12.25;;;-1.60;99.90;;;;;;5066765;28;20122;-70
2021/12/11 08:12:58;;;;;;;25.48;12.00;;;-1.50;99.90;;;;;;5059052;28;20090;-70
2021/12/11 08:15:24;;;;;;;27.23;13.98;;;-1.50;99.90;;;;;;5057522;28;20393;-70
2021/12/11 08:17:54;;;;;;;25.38;12.02;;;-1.50;99.90;;;;;;5078071;28;20113;-67
2021/12/11 08:20:23;;;;;;;28.10;12.88;;;-1.50;99.90;;;;;;5074513;28;20476;-71
2021/12/11 08:22:51;;;;;;;26.10;12.70;;;-1.40;99.90;;;;;;5074436;28;20508;-72
2021/12/11 08:25:18;;;;;;;30.83;13.55;;;-1.40;99.90;;;;;;5060557;28;20058;-68
2021/12/11 08:27:44;;;;;;;32.30;15.23;;;-1.30;99.90;;;;;;5066239;28;20036;-66
2021/12/11 08:30:11;;;;;;;34.85;15.10;;;-1.30;99.90;;;;;;5064878;28;20040;-68
2021/12/11 08:32:37;;;;;;;38.85;15.43;;;-1.20;99.90;;;;;;5067468;28;20036;-67
2021/12/11 08:35:04;;;;;;;29.00;14.37;;;-1.10;99.90;;;;;;5071434;28;20048;-68
2021/12/11 08:37:30;;;;;;;34.58;14.68;;;-1.00;99.90;;;;;;5077377;28;20367;-70
2021/12/11 08:39:56;;;;;;;37.17;15.80;;;-1.00;99.90;;;;;;5053951;28;20043;-71
2021/12/11 08:42:24;;;;;;;36.83;15.73;;;-0.90;99.90;;;;;;5061665;28;20102;-70
2021/12/11 08:44:58;;;;;;;42.90;16.02;;;-0.80;99.90;;;;;;5084899;28;20036;-70
2021/12/11 08:47:25;;;;;;;45.78;15.20;;;-0.80;99.90;;;;;;5056609;28;20040;-77
2021/12/11 08:49:53;;;;;;;33.75;14.80;;;-0.70;99.90;;;;;;5070911;28;20039;-67
2021/12/11 08:52:24;;;;;;;53.40;17.08;;;-0.60;99.90;;;;;;5048970;28;20524;-68
2021/12/11 08:54:50;;;;;;;42.05;16.77;;;-0.60;99.90;;;;;;5049472;28;20400;-68
2021/12/11 08:57:20;;;;;;;55.33;15.88;;;-0.50;99.90;;;;;;5064348;28;20032;-67
2021/12/11 08:59:50;;;;;;;43.58;15.80;;;-0.50;99.90;;;;;;5068860;28;20028;-67
2021/12/11 09:03:02;;;;;;;40.70;14.23;;;-0.40;99.90;;;;;;5054682;28;20060;-67
2021/12/11 09:05:45;;;;;;;50.33;16.15;;;-0.40;99.90;;;;;;5063017;28;20052;-70
2021/12/11 09:08:19;;;;;;;54.60;15.85;;;-0.30;99.90;;;;;;5075757;28;20444;-69
2021/12/11 09:10:57;;;;;;;40.47;14.82;;;-0.30;99.90;;;;;;5051974;28;20040;-71
2021/12/11 09:13:34;;;;;;;44.90;16.00;;;-0.20;99.90;;;;;;5058739;28;20127;-71
2021/12/11 09:16:20;;;;;;;39.25;15.73;;;-0.20;99.90;;;;;;5056511;28;20066;-71
2021/12/11 09:18:56;;;;;;;53.78;16.38;;;-0.20;99.90;;;;;;5053110;28;20055;-71
2021/12/11 09:21:30;;;;;;;40.85;16.95;;;-0.10;99.90;;;;;;5060786;28;20051;-71
2021/12/11 09:24:04;;;;;;;44.70;17.63;;;-0.10;99.90;;;;;;5058900;28;20048;-71
2021/12/11 09:26:38;;;;;;;37.55;16.38;;;-0.10;99.90;;;;;;5076826;28;20036;-65
2021/12/11 09:29:18;;;;;;;44.03;17.05;;;0.00;99.90;;;;;;5075166;28;20035;-65
2021/12/11 09:32:02;;;;;;;45.90;17.55;;;0.00;99.90;;;;;;5069837;28;20548;-65
2021/12/11 09:34:41;;;;;;;33.35;15.13;;;0.10;99.90;;;;;;5057626;28;21480;-65
2021/12/11 09:37:08;;;;;;;35.53;15.93;;;0.10;99.90;;;;;;5078070;28;20512;-65
2021/12/11 09:39:46;;;;;;;;;;;0.20;99.90;;;;;;5079976;28;20028;-66
2021/12/11 09:42:11;;;;;;;30.65;14.98;;;0.20;99.90;;;;;;5079646;28;20010;-66
2021/12/11 09:44:46;;;;;;;36.43;16.77;;;0.20;99.90;;;;;;5082955;28;20185;-66
2021/12/11 09:47:35;;;;;;;32.58;15.70;;;0.30;99.90;;;;;;5054703;28;20341;-70
2021/12/11 09:50:09;;;;;;;31.60;15.63;;;0.40;99.90;;;;;;5075786;28;20123;-69
2021/12/11 09:52:36;;;;;;;28.45;14.57;;;0.40;99.90;;;;;;5071992;28;20033;-70
2021/12/11 09:55:11;;;;;;;28.90;15.10;;;0.40;99.90;;;;;;5077846;28;20043;-69
2021/12/11 09:57:42;;;;;;;28.02;14.90;;;0.50;99.90;;;;;;5061938;28;20050;-69
2021/12/11 10:00:23;;;;;;;32.30;15.60;;;0.50;99.90;;;;;;5069670;28;20496;-69
2021/12/11 10:02:49;;;;;;;29.10;14.75;;;0.50;99.90;;;;;;5071070;28;20074;-69
2021/12/11 10:05:31;;;;;;;30.98;15.20;;;0.60;99.90;;;;;;5058119;28;20040;-69
2021/12/11 10:08:40;;;;;;;29.33;14.60;;;0.60;99.90;;;;;;5061426;28;20086;-66
2021/12/11 10:11:10;;;;;;;29.38;14.50;;;0.70;99.90;;;;;;5064908;28;20052;-66
2021/12/11 10:13:47;;;;;;;28.17;14.20;;;0.70;99.90;;;;;;5062195;28;20706;-69
2021/12/11 10:16:15;;;;;;;32.20;14.93;;;0.70;99.90;;;;;;5062212;28;20040;-68
2021/12/11 10:18:41;;;;;;;32.83;15.02;;;0.70;99.90;;;;;;5063024;28;20380;-69
2021/12/11 10:21:15;;;;;;;30.63;13.90;;;0.80;99.90;;;;;;5052557;28;20073;-69
2021/12/11 10:23:44;;;;;;;28.08;14.35;;;0.80;99.90;;;;;;5069016;28;20151;-68
2021/12/11 10:26:11;;;;;;;26.23;13.85;;;0.80;99.90;;;;;;5059903;28;20127;-69
2021/12/11 10:28:44;;;;;;;28.67;14.25;;;0.90;99.90;;;;;;5065140;28;20119;-69
2021/12/11 10:31:15;;;;;;;29.45;14.90;;;0.90;99.90;;;;;;5081254;28;20036;-70
2021/12/11 10:33:41;;;;;;;29.27;13.88;;;1.00;99.90;;;;;;5059361;28;20052;-69
2021/12/11 10:36:12;;;;;;;24.63;13.13;;;1.10;99.90;;;;;;5076296;28;20074;-69
2021/12/11 10:38:40;;;;;;;27.70;14.00;;;1.20;99.90;;;;;;5072259;28;20032;-67
2021/12/11 10:41:09;;;;;;;28.00;13.05;;;1.20;99.90;;;;;;5066066;28;20036;-67
2021/12/11 10:43:42;;;;;;;31.15;13.57;;;1.30;99.90;;;;;;5076805;28;20489;-67
2021/12/11 10:46:10;;;;;;;30.70;14.15;;;1.40;99.90;;;;;;5065045;28;20109;-67
2021/12/11 10:48:37;;;;;;;25.77;12.90;;;1.50;99.90;;;;;;5077113;28;20074;-67
2021/12/11 10:51:15;;;;;;;26.13;13.75;;;1.60;99.90;;;;;;5077278;28;20066;-67
2021/12/11 10:53:46;;;;;;;28.48;14.13;;;1.70;99.90;;;;;;5065336;28;20373;-66
2021/12/11 10:56:16;;;;;;;25.65;12.10;;;1.70;99.90;;;;;;5059068;28;20040;-67
2021/12/11 10:58:46;;;;;;;28.65;13.88;;;1.90;99.90;;;;;;5079647;28;20036;-67
2021/12/11 11:01:29;;;;;;;23.63;11.70;;;2.00;99.90;;;;;;5082552;28;20530;-67
2021/12/11 11:04:07;;;;;;;24.40;13.55;;;2.10;99.90;;;;;;5078588;28;20105;-67
2021/12/11 11:06:33;;;;;;;30.35;13.43;;;2.20;99.90;;;;;;5077609;28;20052;-67
2021/12/11 11:08:59;;;;;;;26.88;13.25;;;2.20;99.90;;;;;;5064156;28;20034;-66
2021/12/11 11:11:28;;;;;;;29.83;12.67;;;2.30;99.90;;;;;;5091223;28;20040;-67
2021/12/11 11:13:54;;;;;;;26.30;12.38;;;2.20;99.90;;;;;;5086651;28;20037;-67
2021/12/11 11:16:20;;;;;;;24.43;12.13;;;2.30;99.90;;;;;;5076096;28;20032;-66
2021/12/11 11:18:47;;;;;;;;;;;2.30;99.90;;;;;;5086795;28;20091;-66
2021/12/11 11:21:20;;;;;;;25.58;11.25;;;2.30;99.90;;;;;;5060910;28;20373;-66
2021/12/11 11:23:47;;;;;;;25.08;11.75;;;2.30;99.90;;;;;;5068837;28;20036;-66
2021/12/11 11:26:18;;;;;;;27.90;12.68;;;2.30;99.90;;;;;;5080262;28;20028;-69
2021/12/11 11:28:44;;;;;;;28.70;12.48;;;2.40;99.90;;;;;;5084446;28;20044;-67
2021/12/11 11:31:15;;;;;;;28.95;14.30;;;2.40;99.90;;;;;;5087317;28;20036;-69
2021/12/11 11:33:42;;;;;;;25.48;12.75;;;2.50;99.90;;;;;;5063603;28;20048;-69
2021/12/11 11:36:13;;;;;;;23.67;12.25;;;2.50;99.90;;;;;;5061516;28;20118;-67
2021/12/11 11:38:42;;;;;;;28.67;13.70;;;2.50;99.90;;;;;;5060495;28;20070;-68
2021/12/11 11:41:17;;;;;;;27.23;13.50;;;2.50;99.90;;;;;;5054931;28;20048;-68
2021/12/11 11:43:45;;;;;;;27.15;13.93;;;2.40;99.90;;;;;;5075891;28;20075;-68
2021/12/11 11:46:11;;;;;;;24.23;13.00;;;2.40;99.90;;;;;;5083444;28;20139;-69
2021/12/11 11:48:41;;;;;;;26.77;14.20;;;2.40;99.90;;;;;;5089373;28;20032;-68
2021/12/11 11:51:14;;;;;;;24.85;12.82;;;2.40;99.90;;;;;;5086043;28;20036;-68
2021/12/11 11:53:39;;;;;;;31.88;14.60;;;2.50;99.90;;;;;;5083665;28;20070;-67
2021/12/11 11:56:10;;;;;;;26.97;14.43;;;2.60;99.90;;;;;;5085463;28;20089;-67
2021/12/11 11:58:37;;;;;;;32.65;14.38;;;2.70;99.90;;;;;;5066098;28;20044;-67
2021/12/11 12:01:11;;;;;;;27.90;14.95;;;2.80;99.90;;;;;;5076236;28;20049;-67
2021/12/11 12:03:37;;;;;;;26.42;13.63;;;2.80;99.90;;;;;;5037899;28;20040;-69
2021/12/11 12:06:10;;;;;;;27.83;13.65;;;2.80;99.90;;;;;;5051204;28;20134;-69
2021/12/11 12:08:37;;;;;;;27.92;14.43;;;2.80;99.90;;;;;;5060651;28;20096;-69
2021/12/11 12:11:04;;;;;;;28.02;14.82;;;2.90;99.90;;;;;;5084380;28;20070;-67
2021/12/11 12:13:30;;;;;;;24.27;13.73;;;2.90;99.90;;;;;;5080436;28;20062;-67
2021/12/11 12:16:04;;;;;;;27.80;13.43;;;2.90;99.90;;;;;;5080741;28;20040;-67
2021/12/11 12:18:31;;;;;;;30.05;14.32;;;2.80;99.90;;;;;;5077471;28;20198;-66
2021/12/11 12:20:57;;;;;;;26.70;13.35;;;2.90;99.90;;;;;;5068081;28;20474;-67
2021/12/11 12:23:24;;;;;;;30.83;13.98;;;2.90;99.90;;;;;;5076681;28;20048;-68
2021/12/11 12:25:51;;;;;;;;;;;3.00;99.90;;;;;;5076046;28;20044;-68
2021/12/11 12:28:18;;;;;;;28.55;14.75;;;3.10;99.90;;;;;;5082881;28;19919;-68
2021/12/11 12:30:52;;;;;;;;;;;3.30;99.90;;;;;;5071735;28;20044;-68
2021/12/11 12:33:18;;;;;;;29.30;14.38;;;3.40;99.90;;;;;;5079886;28;19920;-68
2021/12/11 12:35:45;;;;;;;29.83;14.53;;;3.60;99.90;;;;;;5080500;28;20326;-68
2021/12/11 12:38:16;;;;;;;28.48;13.95;;;3.70;99.90;;;;;;5078311;28;20059;-67
2021/12/11 12:41:05;;;;;;;31.35;13.30;;;3.80;99.90;;;;;;5082009;28;20028;-68
2021/12/11 12:46:40;;;;;;;28.15;12.73;;;3.80;99.90;;;;;;5081471;28;20050;-68
2021/12/11 12:49:07;;;;;;;24.40;13.07;;;3.80;99.90;;;;;;5080566;28;20032;-67
2021/12/11 12:51:34;;;;;;;29.85;13.43;;;3.70;99.90;;;;;;5078090;28;20036;-65
2021/12/11 12:54:03;;;;;;;28.17;13.35;;;3.80;99.90;;;;;;5072783;28;20036;-66
2021/12/11 12:56:44;;;;;;;26.05;12.60;;;3.80;99.90;;;;;;5077410;28;20039;-66
2021/12/11 12:59:18;;;;;;;27.33;13.77;;;3.80;99.90;;;;;;5055971;28;20060;-66
2021/12/11 13:01:49;;;;;;;24.58;13.45;;;3.80;99.90;;;;;;5060152;28;20052;-66
2021/12/11 13:04:19;;;;;;;26.30;13.68;;;3.90;99.90;;;;;;5073762;28;20098;-66
2021/12/11 13:06:51;;;;;;;32.20;14.65;;;3.90;99.90;;;;;;5073118;28;20032;-66
2021/12/11 13:09:26;;;;;;;23.42;12.60;;;3.90;99.90;;;;;;5073412;28;20042;-66